Time;durP1;ratioP1;P1;durP2;ratioP2;P2;SDS_P1;SDS_P2;PMS_P1;PMS_P2;Temp;Humidity;BMP_temperature;BMP_pressure;BME280_temperature;BME280_humidity;BME280_pressure;Samples;Min_cycle;Max_cycle;Signal;HPM_P1;HPM_P2
2022/12/26 00:01:31;;;;;;;;;5.00;5.00;;;;;13.91;100.00;101157.09;5026423;28;45544;-79
2022/12/26 00:03:56;;;;;;;;;4.00;4.00;;;;;13.86;100.00;101159.44;5032762;28;45276;-77
2022/12/26 00:06:24;;;;;;;;;3.00;3.00;;;;;13.87;100.00;101167.50;5028246;28;45787;-79
2022/12/26 00:08:51;;;;;;;;;4.00;3.33;;;;;13.86;100.00;101165.78;5033537;28;45323;-78
2022/12/26 00:11:17;;;;;;;;;4.00;3.67;;;;;13.88;100.00;101168.34;5039454;28;45338;-80
2022/12/26 00:13:43;;;;;;;;;5.00;4.33;;;;;13.84;100.00;101156.00;5034259;28;45509;-79
2022/12/26 00:16:10;;;;;;;;;4.67;3.00;;;;;13.74;100.00;101145.19;5036941;28;45464;-79
2022/12/26 00:18:36;;;;;;;;;3.67;3.00;;;;;13.83;100.00;101166.06;5033602;28;45495;-79
2022/12/26 00:21:01;;;;;;;;;5.67;2.33;;;;;13.82;100.00;101153.44;5035244;28;45499;-79
2022/12/26 00:23:26;;;;;;;;;4.67;4.00;;;;;13.84;100.00;101167.78;5033529;28;45576;-78
2022/12/26 00:25:52;;;;;;;;;5.00;4.00;;;;;13.83;100.00;101168.81;5039331;28;45513;-78
2022/12/26 00:28:17;;;;;;;;;4.00;4.00;;;;;13.86;100.00;101182.16;5036327;28;45391;-79
2022/12/26 00:30:42;;;;;;;;;6.33;4.00;;;;;13.72;100.00;101185.47;5040414;28;45642;-78
2022/12/26 00:33:08;;;;;;;;;5.67;4.33;;;;;13.82;100.00;101179.88;5035096;28;45538;-79
2022/12/26 00:35:33;;;;;;;;;5.33;4.00;;;;;13.74;100.00;101180.69;5038952;28;48296;-79
2022/12/26 00:37:59;;;;;;;;;6.33;6.33;;;;;13.69;100.00;101163.91;5033707;28;45376;-80
2022/12/26 00:40:24;;;;;;;;;6.67;5.33;;;;;13.74;100.00;101179.81;5029181;28;45347;-80
2022/12/26 00:42:49;;;;;;;;;7.33;5.00;;;;;13.64;100.00;101171.75;5032294;28;45403;-80
2022/12/26 00:45:15;;;;;;;;;6.33;4.67;;;;;13.72;100.00;101160.03;5038666;28;46186;-78
2022/12/26 00:47:40;;;;;;;;;5.67;4.67;;;;;13.72;100.00;101173.69;5026949;28;45499;-78
2022/12/26 00:50:06;;;;;;;;;5.67;5.67;;;;;13.73;100.00;101187.19;5048389;28;45886;-79
2022/12/26 00:52:31;;;;;;;;;5.67;4.67;;;;;13.76;100.00;101192.31;5039323;28;45407;-79
2022/12/26 00:54:57;;;;;;;;;7.00;4.00;;;;;13.70;100.00;101195.69;5037984;28;47716;-79
2022/12/26 00:57:22;;;;;;;;;5.00;4.67;;;;;13.74;100.00;101188.00;5042829;28;45685;-79
2022/12/26 00:59:47;;;;;;;;;4.67;4.67;;;;;13.69;100.00;101180.31;5034526;28;45298;-79
2022/12/26 01:04:57;;;;;;;;;5.33;5.33;;;;;13.73;100.00;101165.34;5037216;28;45323;-79
2022/12/26 01:07:22;;;;;;;;;5.67;4.00;;;;;13.70;100.00;101176.56;5024130;28;45462;-80
2022/12/26 01:09:47;;;;;;;;;5.00;4.00;;;;;13.73;100.00;101176.25;5036484;28;45212;-78
2022/12/26 01:12:13;;;;;;;;;4.00;4.00;;;;;13.68;100.00;101177.72;5025149;28;45316;-79
2022/12/26 01:14:38;;;;;;;;;6.33;6.00;;;;;13.58;100.00;101178.69;5038392;28;45382;-80
2022/12/26 01:17:03;;;;;;;;;3.67;3.67;;;;;13.71;100.00;101191.94;5037725;28;45266;-80
2022/12/26 01:19:28;;;;;;;;;2.00;2.00;;;;;13.70;100.00;101201.13;5038939;28;45429;-80
2022/12/26 01:21:54;;;;;;;;;4.33;4.00;;;;;13.70;100.00;101198.41;5032352;28;45235;-80
2022/12/26 01:24:20;;;;;;;;;5.00;5.00;;;;;13.68;100.00;101199.56;5037889;28;45325;-80
2022/12/26 01:26:46;;;;;;;;;4.00;4.00;;;;;13.73;100.00;101217.22;5030440;28;45481;-80
2022/12/26 01:29:11;;;;;;;;;6.67;4.00;;;;;13.72;100.00;101217.38;5038613;28;45152;-79
2022/12/26 01:31:37;;;;;;;;;1.67;1.67;;;;;13.53;100.00;101200.13;5033523;28;45384;-80
2022/12/26 01:34:02;;;;;;;;;4.67;3.67;;;;;13.61;100.00;101199.34;5039064;28;45390;-78
2022/12/26 01:36:27;;;;;;;;;4.33;4.00;;;;;13.59;100.00;101194.03;5033735;28;45470;-80
2022/12/26 01:38:53;;;;;;;;;4.33;2.67;;;;;13.70;100.00;101197.53;5038880;28;45648;-79
2022/12/26 01:41:18;;;;;;;;;4.00;3.67;;;;;13.70;100.00;101184.75;5038656;28;45582;-79
2022/12/26 01:44:00;;;;;;;;;5.00;3.33;;;;;13.72;100.00;101210.03;5038931;28;45425;-79
2022/12/26 01:46:34;;;;;;;;;4.00;4.00;;;;;13.60;100.00;101227.66;5033813;28;45490;-79
2022/12/26 01:49:13;;;;;;;;;4.00;3.00;;;;;13.37;100.00;101210.88;5042065;28;45238;-79
2022/12/26 01:51:45;;;;;;;;;6.00;4.00;;;;;13.53;100.00;101245.69;5040279;28;45350;-79
2022/12/26 01:54:12;;;;;;;;;3.00;3.00;;;;;13.54;100.00;101253.72;5024817;28;46977;-79
2022/12/26 01:56:42;;;;;;;;;5.67;5.67;;;;;13.61;100.00;101278.53;5039900;28;46031;-79
2022/12/26 01:59:16;;;;;;;;;6.00;4.00;;;;;13.56;100.00;101278.13;5042875;28;45318;-79
2022/12/26 02:01:43;;;;;;;;;2.00;2.00;;;;;13.59;100.00;101264.16;5032654;28;45382;-79
2022/12/26 02:06:59;;;;;;;;;4.00;4.00;;;;;13.52;100.00;101276.72;5029714;28;45425;-79
2022/12/26 02:09:24;;;;;;;;;5.33;5.00;;;;;13.49;100.00;101272.44;5040996;28;45301;-79
2022/12/26 02:11:58;;;;;;;;;1.00;1.00;;;;;13.51;100.00;101253.19;5026782;28;45403;-79
2022/12/26 02:14:23;;;;;;;;;6.00;3.00;;;;;13.51;100.00;101253.19;5034419;28;47625;-79
2022/12/26 02:16:49;;;;;;;;;4.67;4.67;;;;;13.52;100.00;101260.34;5032059;28;45258;-78
2022/12/26 02:19:49;;;;;;;;;4.00;3.00;;;;;13.54;100.00;101264.63;5035782;28;45322;-79
2022/12/26 02:22:32;;;;;;;;;3.00;3.00;;;;;13.53;100.00;101259.31;5047260;28;45272;-79
2022/12/26 02:25:27;;;;;;;;;2.00;2.00;;;;;13.52;100.00;101242.09;5037259;28;46402;-79
2022/12/26 02:28:14;;;;;;;;;5.33;3.67;;;;;13.46;100.00;101229.06;5031970;28;45298;-79
2022/12/26 02:30:45;;;;;;;;;3.00;3.00;;;;;13.52;100.00;101243.94;5036732;28;45441;-79
2022/12/26 02:33:35;;;;;;;;;4.00;2.00;;;;;13.46;100.00;101248.16;5029892;28;45363;-79
2022/12/26 02:36:51;;;;;;;;;5.00;2.33;;;;;13.49;100.00;101271.59;5036163;28;46267;-79
2022/12/26 02:39:42;;;;;;;;;1.67;1.00;;;;;13.46;100.00;101260.97;5033698;28;45300;-79
2022/12/26 02:42:25;;;;;;;;;1.67;1.67;;;;;13.55;100.00;101265.50;5033691;28;45429;-79
2022/12/26 02:48:01;;;;;;;;;4.00;2.67;;;;;13.52;100.00;101247.53;5036141;28;45769;-79
2022/12/26 03:15:00;;;;;;;;;1.67;1.67;;;;;13.39;100.00;101232.56;5038693;28;45367;-79
2022/12/26 03:17:32;;;;;;;;;1.33;1.33;;;;;13.35;100.00;101231.16;5029989;28;45412;-79
2022/12/26 03:20:12;;;;;;;;;1.67;1.67;;;;;13.29;100.00;101227.19;5039061;28;45548;-79
2022/12/26 03:22:40;;;;;;;;;2.00;0.00;;;;;13.31;100.00;101224.28;5040896;28;47113;-79
2022/12/26 03:27:56;;;;;;;;;3.00;2.00;;;;;13.31;100.00;101248.84;5036395;28;45474;-78
2022/12/26 03:34:15;;;;;;;;;1.00;1.00;;;;;13.23;100.00;101230.50;5043418;28;45434;-78
2022/12/26 03:35:52;;;;;;;;;2.00;0.00;;;;;13.22;100.00;101243.28;5039298;28;45496;-78
2022/12/26 03:38:26;;;;;;;;;1.00;1.00;;;;;13.13;100.00;101252.44;5038685;28;45386;-78
2022/12/26 04:19:25;;;;;;;;;3.00;1.00;;;;;13.08;100.00;101265.59;5034311;28;45343;-79
2022/12/26 04:45:02;;;;;;;;;1.00;1.00;;;;;13.02;100.00;101285.31;5042683;28;45445;-80
2022/12/26 04:47:30;;;;;;;;;1.00;1.00;;;;;13.10;100.00;101288.16;5034005;28;45169;-80
2022/12/26 04:50:11;;;;;;;;;3.00;1.00;;;;;13.05;100.00;101290.47;5041125;28;45364;-80
2022/12/26 04:52:57;;;;;;;;;0.33;0.33;;;;;13.09;100.00;101310.97;5041689;28;45571;-80
2022/12/26 04:55:23;;;;;;;;;1.00;1.00;;;;;13.12;100.00;101305.22;5033746;28;45489;-80
2022/12/26 04:57:49;;;;;;;;;1.00;1.00;;;;;13.15;100.00;101323.22;5028289;28;45244;-80
2022/12/26 05:00:14;;;;;;;;;2.33;2.33;;;;;13.07;100.00;101326.66;5034584;28;45661;-80
2022/12/26 05:11:07;;;;;;;;;2.33;1.00;;;;;13.15;100.00;101324.03;5035445;28;45314;-80
2022/12/26 05:13:32;;;;;;;;;2.00;1.00;;;;;13.12;100.00;101335.25;5053033;28;46841;-79
2022/12/26 05:29:38;;;;;;;;;2.00;2.00;;;;;12.91;100.00;101340.06;5041300;28;45539;-79
2022/12/26 05:32:03;;;;;;;;;0.67;0.67;;;;;12.84;100.00;101325.31;5032577;28;45585;-78
2022/12/26 05:34:28;;;;;;;;;4.00;0.00;;;;;12.78;100.00;101331.38;5055172;28;47805;-79
2022/12/26 05:36:57;;;;;;;;;0.00;0.00;;;;;12.81;100.00;101331.06;5050908;28;45441;-77
2022/12/26 05:39:22;;;;;;;;;1.00;1.00;;;;;12.82;100.00;101330.91;5040660;28;45406;-78
2022/12/26 05:41:47;;;;;;;;;2.00;1.00;;;;;12.71;100.00;101327.53;5028275;28;45403;-78
2022/12/26 05:44:13;;;;;;;;;3.00;2.00;;;;;12.80;100.00;101346.56;5038403;28;45268;-77
2022/12/26 05:46:41;;;;;;;;;2.00;2.00;;;;;12.79;100.00;101346.69;5032416;28;45803;-80
2022/12/26 05:49:07;;;;;;;;;3.00;1.00;;;;;12.81;100.00;101361.91;5028933;28;45478;-81
2022/12/26 05:51:33;;;;;;;;;2.00;2.00;;;;;12.79;100.00;101369.38;5034565;28;45727;-79
2022/12/26 05:53:59;;;;;;;;;1.00;1.00;;;;;12.82;100.00;101381.88;5036399;28;46416;-79
2022/12/26 05:56:24;;;;;;;;;1.00;1.00;;;;;12.83;100.00;101389.03;5030091;28;45432;-80
2022/12/26 05:58:58;;;;;;;;;0.33;0.33;;;;;12.84;100.00;101388.03;5038794;28;45403;-82
2022/12/26 06:01:25;;;;;;;;;1.67;1.67;;;;;12.88;100.00;101390.31;5025339;28;45414;-79
2022/12/26 06:03:53;;;;;;;;;2.33;1.00;;;;;12.92;100.00;101398.22;5042791;28;45415;-80
2022/12/26 06:06:19;;;;;;;;;1.00;1.00;;;;;12.91;100.00;101408.25;5031355;28;45381;-80
2022/12/26 06:08:53;;;;;;;;;0.00;0.00;;;;;12.84;100.00;101385.31;5031182;28;45464;-80
2022/12/26 06:11:19;;;;;;;;;1.00;1.00;;;;;12.81;100.00;101377.41;5036119;28;45591;-80
2022/12/26 06:13:45;;;;;;;;;2.33;1.00;;;;;12.74;100.00;101366.25;5031104;28;47926;-80
2022/12/26 06:16:13;;;;;;;;;2.00;2.00;;;;;12.73;100.00;101374.56;5035119;28;45456;-80
2022/12/26 06:18:39;;;;;;;;;1.33;1.33;;;;;12.68;100.00;101368.69;5033014;28;45307;-81
2022/12/26 06:21:06;;;;;;;;;0.67;0.00;;;;;12.63;100.00;101360.97;5036595;28;45459;-80
2022/12/26 06:23:32;;;;;;;;;2.00;2.00;;;;;12.61;100.00;101356.66;5037295;28;45529;-80
2022/12/26 06:25:58;;;;;;;;;4.00;3.33;;;;;12.60;100.00;101355.81;5039428;28;45381;-80
2022/12/26 06:28:24;;;;;;;;;1.33;1.33;;;;;12.55;100.00;101332.72;5038747;28;45314;-81
2022/12/26 06:30:50;;;;;;;;;1.00;1.00;;;;;12.53;100.00;101340.19;5041177;28;45575;-82
2022/12/26 06:33:17;;;;;;;;;1.00;1.00;;;;;12.39;100.00;101346.94;5039593;28;45730;-79
2022/12/26 06:35:43;;;;;;;;;0.00;0.00;;;;;12.43;100.00;101361.97;5041228;28;45268;-81
2022/12/26 06:38:09;;;;;;;;;2.33;2.33;;;;;12.35;100.00;101357.25;5037407;28;45257;-81
2022/12/26 06:40:38;;;;;;;;;0.00;0.00;;;;;12.46;100.00;101378.06;5031227;28;45410;-82
2022/12/26 06:43:03;;;;;;;;;1.00;1.00;;;;;12.40;100.00;101389.53;5028474;28;45514;-81
2022/12/26 06:45:29;;;;;;;;;2.00;1.00;;;;;12.39;100.00;101385.97;5038239;28;45413;-84
2022/12/26 06:47:54;;;;;;;;;5.00;1.67;;;;;12.37;100.00;101404.31;5036984;28;45379;-81
2022/12/26 06:50:22;;;;;;;;;1.00;1.00;;;;;12.36;100.00;101391.69;5039212;28;45737;-81
2022/12/26 06:52:47;;;;;;;;;2.67;2.67;;;;;12.35;100.00;101395.41;5043589;28;45539;-80
2022/12/26 06:55:13;;;;;;;;;2.00;2.00;;;;;12.32;100.00;101397.56;5034222;28;45279;-82
2022/12/26 06:57:38;;;;;;;;;2.00;2.00;;;;;12.31;100.00;101401.31;5045258;28;45430;-80
2022/12/26 07:00:04;;;;;;;;;2.00;2.00;;;;;12.31;100.00;101401.31;5040700;28;45308;-81
2022/12/26 07:02:29;;;;;;;;;1.33;1.00;;;;;12.29;100.00;101412.34;5046064;28;47949;-80
2022/12/26 07:04:54;;;;;;;;;1.67;1.00;;;;;12.38;100.00;101411.47;5038070;28;45461;-80
2022/12/26 07:07:20;;;;;;;;;2.33;1.00;;;;;12.40;100.00;101419.53;5029143;28;45339;-80
2022/12/26 07:09:45;;;;;;;;;2.00;1.00;;;;;12.48;100.00;101423.25;5043108;28;45283;-83
2022/12/26 07:12:11;;;;;;;;;3.00;1.67;;;;;12.45;100.00;101414.50;5027041;28;46958;-82
2022/12/26 07:14:36;;;;;;;;;2.00;1.00;;;;;12.54;100.00;101426.41;5030915;28;45308;-82
2022/12/26 07:17:01;;;;;;;;;1.00;1.00;;;;;12.53;100.00;101430.13;5038715;28;45658;-83
2022/12/26 07:19:28;;;;;;;;;2.00;1.00;;;;;12.42;100.00;101423.81;5035776;28;45256;-82
2022/12/26 07:21:53;;;;;;;;;2.00;2.00;;;;;12.46;100.00;101441.59;5032874;28;47041;-82
2022/12/26 07:24:20;;;;;;;;;2.00;2.00;;;;;12.45;100.00;101450.78;5037382;28;45753;-82
2022/12/26 07:26:46;;;;;;;;;2.00;1.00;;;;;12.53;100.00;101460.09;5037516;28;45332;-82
2022/12/26 07:29:14;;;;;;;;;2.00;1.00;;;;;12.51;100.00;101462.97;5039495;28;45306;-82
2022/12/26 07:31:40;;;;;;;;;1.00;1.00;;;;;12.48;100.00;101452.38;5050125;28;48308;-81
2022/12/26 07:34:06;;;;;;;;;1.00;1.00;;;;;12.43;100.00;101444.59;5037276;28;45374;-82
2022/12/26 07:36:31;;;;;;;;;1.00;1.00;;;;;12.48;100.00;101453.22;5035097;28;45525;-80
2022/12/26 07:38:57;;;;;;;;;1.00;1.00;;;;;12.41;100.00;101454.81;5041983;28;45240;-81
2022/12/26 07:44:09;;;;;;;;;1.67;1.00;;;;;12.26;100.00;101444.47;5043800;28;45241;-81
2022/12/26 07:46:34;;;;;;;;;1.67;1.00;;;;;12.35;100.00;101459.94;5038728;28;45558;-82
2022/12/26 07:49:00;;;;;;;;;3.00;3.00;;;;;12.30;100.00;101460.38;5044449;28;45390;-82
2022/12/26 07:51:26;;;;;;;;;1.00;1.00;;;;;12.30;100.00;101465.84;5032641;28;45474;-82
2022/12/26 07:53:51;;;;;;;;;2.00;2.00;;;;;12.35;100.00;101481.75;5043383;28;45674;-82
2022/12/26 07:56:17;;;;;;;;;2.33;2.33;;;;;12.37;100.00;101475.16;5043671;28;45437;-82
2022/12/26 07:58:42;;;;;;;;;3.00;3.00;;;;;12.31;100.00;101478.47;5044307;28;45310;-82
2022/12/26 08:01:07;;;;;;;;;2.00;2.00;;;;;12.36;100.00;101476.16;5026210;28;46860;-82
2022/12/26 08:03:34;;;;;;;;;2.00;2.00;;;;;12.42;100.00;101497.38;5029812;28;45340;-82
2022/12/26 08:06:00;;;;;;;;;1.00;1.00;;;;;12.44;100.00;101484.47;5032792;28;45246;-82
2022/12/26 08:08:25;;;;;;;;;1.67;1.67;;;;;12.55;100.00;101485.38;5032438;28;45292;-80
2022/12/26 08:10:59;;;;;;;;;2.67;2.67;;;;;12.58;100.00;101493.22;5034026;28;45358;-81
2022/12/26 08:13:24;;;;;;;;;2.67;2.67;;;;;12.59;100.00;101494.97;5027758;28;45263;-82
2022/12/26 08:15:49;;;;;;;;;3.67;3.00;;;;;12.59;100.00;101497.69;5030736;28;45294;-83
2022/12/26 08:18:15;;;;;;;;;2.00;2.00;;;;;12.59;100.00;101501.28;5043675;28;45661;-83
2022/12/26 08:20:40;;;;;;;;;2.00;2.00;;;;;12.59;100.00;101517.63;5040312;28;45309;-82
2022/12/26 08:23:05;;;;;;;;;3.00;3.00;;;;;12.63;100.00;101512.78;5043559;28;45531;-82
2022/12/26 08:25:30;;;;;;;;;2.00;2.00;;;;;12.77;100.00;101520.53;5039138;28;45457;-81
2022/12/26 08:27:56;;;;;;;;;1.00;1.00;;;;;12.79;100.00;101510.31;5034880;28;45228;-83
2022/12/26 08:30:21;;;;;;;;;2.00;2.00;;;;;12.75;100.00;101511.63;5036819;28;46754;-83
2022/12/26 08:32:46;;;;;;;;;7.00;7.00;;;;;12.78;100.00;101508.63;5038043;28;45275;-83
2022/12/26 08:35:12;;;;;;;;;2.67;1.33;;;;;12.81;100.00;101517.34;5041337;28;45588;-83
2022/12/26 08:37:37;;;;;;;;;3.33;3.00;;;;;12.80;100.00;101514.75;5038591;28;45421;-82
2022/12/26 08:40:03;;;;;;;;;3.00;3.00;;;;;12.68;100.00;101522.22;5039995;28;47192;-82
2022/12/26 08:42:28;;;;;;;;;2.00;2.00;;;;;12.76;100.00;101518.78;5032591;28;45416;-82
2022/12/26 08:44:54;;;;;;;;;2.33;2.33;;;;;12.68;100.00;101515.91;5028345;28;45403;-82
2022/12/26 08:47:20;;;;;;;;;5.00;2.00;;;;;12.67;100.00;101516.91;5034664;28;45401;-83
2022/12/26 08:49:46;;;;;;;;;2.00;2.00;;;;;12.77;100.00;101534.16;5041482;28;48081;-82
2022/12/26 08:52:11;;;;;;;;;2.00;2.00;;;;;12.66;100.00;101531.56;5042339;28;45382;-82
2022/12/26 08:54:36;;;;;;;;;2.33;2.00;;;;;12.65;100.00;101543.47;5041532;28;45387;-82
2022/12/26 08:57:02;;;;;;;;;3.00;3.00;;;;;12.69;100.00;101545.78;5034972;28;45350;-81
2022/12/26 08:59:27;;;;;;;;;4.00;3.00;;;;;12.74;100.00;101540.75;5042619;28;46162;-82
2022/12/26 09:01:52;;;;;;;;;3.00;2.00;;;;;12.86;100.00;101546.91;5026397;28;45263;-81
2022/12/26 09:04:18;;;;;;;;;2.00;2.00;;;;;12.87;100.00;101554.09;5033838;28;45420;-81
2022/12/26 09:06:43;;;;;;;;;1.67;1.00;;;;;12.88;100.00;101561.25;5036430;28;45555;-82
2022/12/26 09:09:10;;;;;;;;;1.00;1.00;;;;;12.82;100.00;101559.13;5035346;28;46148;-81
2022/12/26 09:11:37;;;;;;;;;3.00;2.00;;;;;12.86;100.00;101574.19;5041450;28;45801;-81
2022/12/26 09:14:03;;;;;;;;;1.00;1.00;;;;;12.84;100.00;101552.53;5042355;28;45279;-83
2022/12/26 09:16:35;;;;;;;;;2.00;2.00;;;;;12.99;100.00;101579.38;5037556;28;45464;-82
2022/12/26 09:19:02;;;;;;;;;2.33;2.33;;;;;13.02;100.00;101573.59;5035633;28;47116;-81
2022/12/26 09:21:28;;;;;;;;;2.00;1.00;;;;;13.07;100.00;101587.69;5031109;28;45436;-80
2022/12/26 09:23:59;;;;;;;;;2.67;1.00;;;;;13.00;100.00;101587.41;5034933;28;45283;-81
2022/12/26 09:26:25;;;;;;;;;4.67;4.67;;;;;13.03;100.00;101578.94;5033684;28;45429;-80
2022/12/26 09:28:51;;;;;;;;;2.00;2.00;;;;;13.17;100.00;101588.56;5036935;28;45745;-83
2022/12/26 09:31:19;;;;;;;;;2.67;2.67;;;;;13.23;100.00;101588.84;5035863;28;45389;-81
2022/12/26 09:33:48;;;;;;;;;2.00;2.00;;;;;13.15;100.00;101580.53;5038269;28;45259;-81
2022/12/26 09:36:16;;;;;;;;;3.67;3.67;;;;;13.13;100.00;101579.81;5035762;28;46229;-83
2022/12/26 09:38:43;;;;;;;;;4.33;2.00;;;;;13.08;100.00;101573.03;5039177;28;48142;-82
2022/12/26 09:41:17;;;;;;;;;1.00;1.00;;;;;13.06;100.00;101584.09;5030818;28;45381;-82
2022/12/26 09:44:08;;;;;;;;;3.33;1.00;;;;;13.08;100.00;101589.41;5039183;28;45525;-82
2022/12/26 09:46:58;;;;;;;;;2.67;2.00;;;;;13.14;100.00;101594.34;5031245;28;45879;-82
2022/12/26 09:49:30;;;;;;;;;2.00;2.00;;;;;13.07;100.00;101587.69;5035446;28;47053;-82
2022/12/26 09:52:00;;;;;;;;;4.67;3.33;;;;;13.05;100.00;101603.34;5033989;28;45422;-82
2022/12/26 09:54:51;;;;;;;;;1.00;1.00;;;;;13.17;100.00;101605.81;5032618;28;45373;-81
2022/12/26 09:57:35;;;;;;;;;0.67;0.67;;;;;13.25;100.00;101611.41;5036046;28;45700;-82
2022/12/26 10:00:04;;;;;;;;;1.00;1.00;;;;;13.24;100.00;101606.94;5037696;28;47281;-81
2022/12/26 10:02:30;;;;;;;;;4.00;2.00;;;;;13.29;100.00;101609.25;5041519;28;45534;-81
2022/12/26 10:04:55;;;;;;;;;3.33;3.00;;;;;13.36;100.00;101606.81;5032262;28;45387;-81
2022/12/26 10:07:37;;;;;;;;;3.33;2.00;;;;;13.32;100.00;101608.94;5039896;28;45347;-82
2022/12/26 10:10:12;;;;;;;;;2.67;1.33;;;;;13.24;100.00;101601.50;5032697;28;46510;-82
2022/12/26 10:13:03;;;;;;;;;1.67;1.67;;;;;13.39;100.00;101625.59;5035708;28;45275;-81
2022/12/26 10:15:50;;;;;;;;;1.00;1.00;;;;;13.44;100.00;101626.88;5039925;28;45271;-82
2022/12/26 10:18:33;;;;;;;;;4.00;3.00;;;;;13.24;100.00;101623.31;5043192;28;45417;-82
2022/12/26 10:21:21;;;;;;;;;3.00;3.00;;;;;13.37;100.00;101627.66;5037407;28;45416;-82
2022/12/26 10:23:55;;;;;;;;;2.00;2.00;;;;;13.50;100.00;101630.94;5041392;28;45285;-82
2022/12/26 10:26:28;;;;;;;;;1.67;1.67;;;;;13.47;100.00;101623.00;5038991;28;45425;-82
2022/12/26 10:29:07;;;;;;;;;2.33;1.33;;;;;13.47;100.00;101623.88;5041626;28;45456;-82
2022/12/26 10:32:13;;;;;;;;;2.00;1.00;;;;;13.56;100.00;101623.00;5042935;28;45678;-82
2022/12/26 10:34:45;;;;;;;;;2.00;2.00;;;;;13.58;100.00;101614.69;5031117;28;45310;-81
2022/12/26 10:37:32;;;;;;;;;2.00;2.00;;;;;13.62;100.00;101616.09;5038978;28;45327;-81
2022/12/26 10:40:22;;;;;;;;;2.00;1.00;;;;;13.63;100.00;101613.22;5034859;28;45345;-81
2022/12/26 10:42:56;;;;;;;;;6.67;3.33;;;;;13.59;100.00;101610.91;5034350;28;45640;-81
2022/12/26 10:45:38;;;;;;;;;3.33;2.00;;;;;13.52;100.00;101616.09;5042128;28;45241;-81
2022/12/26 10:48:04;;;;;;;;;2.00;1.00;;;;;13.53;100.00;101608.78;5040491;28;45357;-79
2022/12/26 10:50:33;;;;;;;;;4.00;1.00;;;;;13.52;100.00;101612.50;5037696;28;45378;-81
2022/12/26 10:53:02;;;;;;;;;1.00;1.00;;;;;13.63;100.00;101612.34;5039496;28;45368;-81
2022/12/26 10:55:31;;;;;;;;;3.67;2.00;;;;;13.60;100.00;101612.63;5040777;28;44984;-81
2022/12/26 10:58:01;;;;;;;;;1.33;1.33;;;;;13.75;100.00;101616.63;5027417;28;45481;-81
2022/12/26 11:00:28;;;;;;;;;2.00;0.33;;;;;13.53;100.00;101616.97;5040638;28;45366;-81
2022/12/26 11:03:14;;;;;;;;;2.00;2.00;;;;;13.69;100.00;101621.81;5033711;28;46109;-81
2022/12/26 11:05:46;;;;;;;;;3.00;1.00;;;;;13.73;100.00;101613.22;5037602;28;45386;-81
2022/12/26 11:08:11;;;;;;;;;2.00;2.00;;;;;13.74;100.00;101620.38;5032121;28;45165;-82
2022/12/26 11:10:37;;;;;;;;;1.67;1.67;;;;;13.77;100.00;101625.53;5042819;28;45513;-82
2022/12/26 11:13:07;;;;;;;;;3.33;2.00;;;;;13.79;100.00;101617.22;5040882;28;47032;-82
2022/12/26 11:15:35;;;;;;;;;1.00;1.00;;;;;13.94;100.00;101630.25;5027841;28;45402;-82
2022/12/26 11:18:18;;;;;;;;;3.33;2.00;;;;;13.87;100.00;101625.53;5034083;28;45302;-82
2022/12/26 11:20:45;;;;;;;;;1.00;1.00;;;;;13.87;100.00;101615.47;5041536;28;45473;-82
2022/12/26 11:23:19;;;;;;;;;2.67;2.00;;;;;13.95;100.00;101615.56;5043362;28;48233;-82
2022/12/26 11:25:51;;;;;;;;;4.00;1.00;;;;;13.95;100.00;101607.34;5039325;28;45231;-82
2022/12/26 11:28:25;;;;;;;;;2.00;2.00;;;;;13.96;100.00;101620.00;5047428;28;45387;-82
2022/12/26 11:30:51;;;;;;;;;1.00;1.00;;;;;14.03;100.00;101609.34;5037568;28;45441;-81
2022/12/26 11:33:24;;;;;;;;;4.00;2.00;;;;;13.82;100.00;101606.84;5039326;28;46514;-82
2022/12/26 11:36:04;;;;;;;;;5.33;1.33;;;;;14.04;100.00;101620.13;5041689;28;45284;-81
2022/12/26 11:38:35;;;;;;;;;3.00;3.00;;;;;14.17;100.00;101630.72;5040166;28;45229;-80
2022/12/26 11:43:58;;;;;;;;;3.67;3.00;;;;;13.91;100.00;101627.81;5039207;28;45317;-81
2022/12/26 11:46:47;;;;;;;;;2.00;2.00;;;;;13.81;100.00;101629.69;5038264;28;45267;-80
2022/12/26 11:49:24;;;;;;;;;3.00;1.00;;;;;13.78;100.00;101621.81;5028371;28;45343;-81
2022/12/26 11:51:51;;;;;;;;;2.00;2.00;;;;;13.74;100.00;101647.69;5043646;28;45494;-80
2022/12/26 11:54:21;;;;;;;;;7.33;4.00;;;;;13.57;100.00;101676.63;5033359;28;47483;-80
2022/12/26 11:56:48;;;;;;;;;3.00;0.00;;;;;13.29;100.00;101676.63;5041102;28;45336;-80
2022/12/26 11:59:19;;;;;;;;;2.67;1.00;;;;;13.21;100.00;101672.75;5045716;28;45445;-80
2022/12/26 12:01:45;;;;;;;;;1.33;1.33;;;;;13.08;100.00;101682.16;5039002;28;45507;-80
2022/12/26 12:04:11;;;;;;;;;0.67;0.67;;;;;12.80;100.00;101673.78;5044482;28;45362;-84
2022/12/26 12:07:08;;;;;;;;;1.67;1.67;;;;;12.81;100.00;101691.88;5033485;28;45273;-80
2022/12/26 12:09:41;;;;;;;;;1.00;1.00;;;;;12.65;100.00;101701.59;5037821;28;45358;-80
2022/12/26 12:12:17;;;;;;;;;0.00;0.00;;;;;12.28;100.00;101696.72;5032443;28;45502;-80
2022/12/26 12:15:00;;;;;;;;;2.00;2.00;;;;;12.19;100.00;101705.72;5034759;28;46506;-81
2022/12/26 12:18:01;;;;;;;;;2.00;2.00;;;;;11.85;100.00;101687.88;5045659;28;45308;-82
2022/12/26 12:20:41;;;;;;;;;2.33;2.33;;;;;11.82;100.00;101696.31;5032349;28;45468;-82
2022/12/26 12:23:25;;;;;;;;;7.00;4.67;;;;;12.01;100.00;101707.31;5035864;28;45365;-84
2022/12/26 12:25:56;;;;;;;;;3.67;3.67;;;;;12.07;100.00;101706.78;5040131;28;47718;-82
2022/12/26 12:28:45;;;;;;;;;5.00;5.00;;;;;11.92;100.00;101710.84;5043721;28;45306;-81
2022/12/26 12:31:33;;;;;;;;;2.00;2.00;;;;;11.80;100.00;101722.81;5037710;28;45425;-79
2022/12/26 12:34:33;;;;;;;;;4.67;4.00;;;;;11.87;100.00;101722.16;5039841;28;45326;-82
2022/12/26 12:37:10;;;;;;;;;3.33;2.00;;;;;11.88;100.00;101731.19;5046807;28;47634;-82
2022/12/26 12:40:17;;;;;;;;;2.00;2.00;;;;;11.74;100.00;101724.22;5042321;28;45242;-83
2022/12/26 12:43:04;;;;;;;;;1.00;0.67;;;;;11.59;100.00;101734.53;5050050;28;45375;-81
2022/12/26 12:45:55;;;;;;;;;4.00;3.00;;;;;11.71;100.00;101722.56;5035049;28;45512;-81
2022/12/26 12:48:41;;;;;;;;;2.33;2.33;;;;;11.66;100.00;101735.72;5036228;28;45355;-83
2022/12/26 12:51:30;;;;;;;;;2.33;1.33;;;;;11.61;100.00;101718.94;5038757;28;44903;-85
2022/12/26 12:54:33;;;;;;;;;1.00;1.00;;;;;11.54;100.00;101725.03;5044023;28;45419;-82
2022/12/26 12:57:23;;;;;;;;;1.00;1.00;;;;;11.58;100.00;101716.47;5051991;28;44867;-82
2022/12/26 13:00:07;;;;;;;;;1.67;1.67;;;;;11.62;100.00;101731.53;5070105;28;45290;-82
2022/12/26 13:03:11;;;;;;;;;2.00;1.00;;;;;11.69;100.00;101721.84;5032596;28;45465;-82
2022/12/26 13:05:58;;;;;;;;;6.67;4.00;;;;;11.69;100.00;101735.44;5039526;28;45434;-82
2022/12/26 13:08:27;;;;;;;;;4.00;2.00;;;;;11.67;100.00;101734.75;5051311;28;45711;-82
2022/12/26 13:11:00;;;;;;;;;4.33;2.00;;;;;11.74;100.00;101736.94;5052852;28;46384;-83
2022/12/26 13:13:44;;;;;;;;;3.67;2.67;;;;;11.76;100.00;101740.41;5041850;28;45291;-83
2022/12/26 13:16:17;;;;;;;;;2.33;2.33;;;;;12.00;100.00;101749.16;5049544;28;45265;-84
2022/12/26 13:18:57;;;;;;;;;5.00;3.33;;;;;11.81;100.00;101743.59;5043824;28;45875;-84
2022/12/26 13:21:25;;;;;;;;;3.33;3.33;;;;;11.87;100.00;101743.94;5050690;28;46617;-83
2022/12/26 13:26:56;;;;;;;;;1.00;1.00;;;;;11.96;100.00;101754.03;5052329;28;44842;-85
2022/12/26 13:29:38;;;;;;;;;2.33;2.33;;;;;11.88;100.00;101750.25;5044736;28;44736;-83
2022/12/26 13:32:13;;;;;;;;;4.67;4.00;;;;;11.90;100.00;101740.97;5044921;28;47349;-84
2022/12/26 13:34:42;;;;;;;;;4.00;4.00;;;;;12.05;100.00;101738.75;5054944;28;44758;-84
2022/12/26 13:37:36;;;;;;;;;5.33;4.00;;;;;11.94;100.00;101749.72;5047241;28;44660;-86
2022/12/26 13:40:27;;;;;;;;;4.67;3.67;;;;;12.16;100.00;101757.75;5046085;28;44815;-84
2022/12/26 13:45:37;;;;;;;;;2.67;1.67;;;;;12.06;100.00;101754.06;5049693;28;45440;-85
2022/12/26 13:48:24;;;;;;;;;3.67;2.00;;;;;11.94;100.00;101760.59;5045525;28;45307;-84
2022/12/26 13:50:54;;;;;;;;;3.33;3.33;;;;;11.99;100.00;101763.78;5041111;28;45533;-84